Las Piedras, Puerto Rico
Current Conditions -  °F | °C
As of 3:53 PM on Thursday 27 Nov 2014 (Local Time) from TJNR Reporting Station
Overcast Overcast  
Wind Chill: 79°   Ceiling: 6000
Heat Index: 82°   Visibility: 10mi
Dew Point: 69°   Wind: 7mph
Humidity: 72%   Direction: 100°E
Pressure: 29.95"   Gusts: NA
Location:  18.18°N, 65.87°W
Report Text: TJNR 271953Z AUTO 10006KT 10SM OVC060 26/21 A2995 RMK AO2 SLP142 T02610206 $
Loading
Personal Weather Stations






























Interactive Weather Map New forecast layout! Learn more

10-Day Weather Forecast

Advertisements
Track Severe Weather on mobile